Time;durP1;ratioP1;P1;durP2;ratioP2;P2;SDS_P1;SDS_P2;PMS_P1;PMS_P2;Temp;Humidity;BMP_temperature;BMP_pressure;BME280_temperature;BME280_humidity;BME280_pressure;Samples;Min_cycle;Max_cycle;Signal;HPM_P1;HPM_P2
2022/06/11 00:01:52;;;;;;;;;;;;;;;-145.66;100.00;59599.19;10483706;28;19920;-67
2022/06/11 00:06:56;;;;;;;;;;;;;;;-145.66;100.00;59599.19;10484264;28;19920;-67
2022/06/11 00:11:58;;;;;;;;;;;;;;;-145.66;100.00;59599.19;10467871;28;19921;-67
2022/06/11 00:17:01;;;;;;;;;;;;;;;-145.66;100.00;59599.19;10502248;28;19924;-67
2022/06/11 00:22:03;;;;;;;;;;;;;;;-145.66;100.00;59599.19;10482795;28;19924;-67
2022/06/11 00:27:06;;;;;;;;;;;;;;;-145.66;100.00;59599.19;10475373;28;19921;-67
2022/06/11 00:32:08;;;;;;;;;;;;;;;-145.66;100.00;59599.19;10460523;28;19925;-67
2022/06/11 00:37:11;;;;;;;;;;;;;;;-145.66;100.00;59599.19;10455678;28;19947;-67
2022/06/11 00:42:15;;;;;;;;;;;;;;;-145.66;100.00;59599.19;10482110;28;19927;-67
2022/06/11 00:47:21;;;;;;;;;;;;;;;-145.66;100.00;59599.19;10500552;28;20300;-67
2022/06/11 00:52:25;;;;;;;;;;;;;;;-145.66;100.00;59599.19;10496977;28;19943;-67
2022/06/11 00:57:30;;;;;;;;;;;;;;;-145.66;100.00;59599.19;10441478;28;19927;-67
2022/06/11 01:02:32;;;;;;;;;;;;;;;-145.66;100.00;59599.19;10464534;28;19927;-67
2022/06/11 01:07:38;;;;;;;;;;;;;;;-145.66;100.00;59599.19;10499616;28;19970;-67
2022/06/11 01:12:47;;;;;;;;;;;;;;;-145.66;100.00;59599.19;10499643;28;20367;-67
2022/06/11 01:17:50;;;;;;;;;;;;;;;-145.66;100.00;59599.19;10499923;28;19922;-67
2022/06/11 01:23:04;;;;;;;;;;;;;;;-145.66;100.00;59599.19;10498182;28;19920;-67
2022/06/11 01:28:16;;;;;;;;;;;;;;;-145.66;100.00;59599.19;10499594;28;19920;-67
2022/06/11 01:33:22;;;;;;;;;;;;;;;-145.66;100.00;59599.19;10498925;28;19921;-67
2022/06/11 01:38:24;;;;;;;;;;;;;;;-145.66;100.00;59599.19;10464263;28;19921;-67
2022/06/11 01:43:32;;;;;;;;;;;;;;;-145.66;100.00;59599.19;10495917;28;19928;-67
2022/06/11 01:48:34;;;;;;;;;;;;;;;-145.66;100.00;59599.19;10474634;28;20015;-67
2022/06/11 01:53:36;;;;;;;;;;;;;;;-145.66;100.00;59599.19;10457501;28;19920;-67
2022/06/11 01:58:41;;;;;;;;;;;;;;;-145.66;100.00;59599.19;10456597;28;19920;-67
2022/06/11 02:04:04;;;;;;;;;;;;;;;-145.66;100.00;59599.19;10471043;28;20417;-67
2022/06/11 02:09:09;;;;;;;;;;;;;;;-145.66;100.00;59599.19;10484034;28;20257;-67
2022/06/11 02:14:18;;;;;;;;;;;;;;;-145.66;100.00;59599.19;10476162;28;19927;-67
2022/06/11 02:19:22;;;;;;;;;;;;;;;-145.66;100.00;59599.19;10456791;28;19925;-67
2022/06/11 02:24:31;;;;;;;;;;;;;;;-145.66;100.00;59599.19;10439478;28;20359;-67
2022/06/11 02:29:33;;;;;;;;;;;;;;;-145.66;100.00;59599.19;10439097;28;19951;-67
2022/06/11 02:34:37;;;;;;;;;;;;;;;-145.66;100.00;59599.19;10456541;28;19927;-67
2022/06/11 02:39:40;;;;;;;;;;;;;;;-145.66;100.00;59599.19;10422444;28;19921;-67
2022/06/11 02:44:43;;;;;;;;;;;;;;;-145.66;100.00;59599.19;10439298;28;20431;-67
2022/06/11 02:49:46;;;;;;;;;;;;;;;-145.66;100.00;59599.19;10438581;28;19920;-67
2022/06/11 02:54:49;;;;;;;;;;;;;;;-145.66;100.00;59599.19;10455511;28;19921;-67
2022/06/11 02:59:52;;;;;;;;;;;;;;;-145.66;100.00;59599.19;10456168;28;19971;-67
2022/06/11 03:04:54;;;;;;;;;;;;;;;-145.66;100.00;59599.19;10438429;28;19921;-67
2022/06/11 03:09:56;;;;;;;;;;;;;;;-145.66;100.00;59599.19;10455413;28;20375;-67
2022/06/11 03:14:59;;;;;;;;;;;;;;;-145.66;100.00;59599.19;10483801;28;19921;-67
2022/06/11 03:20:01;;;;;;;;;;;;;;;-145.66;100.00;59599.19;10464279;28;19924;-67
2022/06/11 03:25:04;;;;;;;;;;;;;;;-145.66;100.00;59599.19;10462383;28;20012;-66
2022/06/11 03:30:07;;;;;;;;;;;;;;;-145.66;100.00;59599.19;10445840;28;19927;-67
2022/06/11 03:35:10;;;;;;;;;;;;;;;-145.66;100.00;59599.19;10444502;28;19987;-67
2022/06/11 03:40:12;;;;;;;;;;;;;;;-145.66;100.00;59599.19;10476518;28;20406;-67
2022/06/11 03:45:14;;;;;;;;;;;;;;;-145.66;100.00;59599.19;10444607;28;19936;-66
2022/06/11 03:50:21;;;;;;;;;;;;;;;-145.66;100.00;59599.19;10462136;28;19927;-67
2022/06/11 03:55:24;;;;;;;;;;;;;;;-145.66;100.00;59599.19;10461299;28;20351;-67
2022/06/11 04:05:49;;;;;;;;;;;;;;;-145.66;100.00;59599.19;10471229;28;20011;-67
2022/06/11 04:10:52;;;;;;;;;;;;;;;-145.66;100.00;59599.19;10444993;28;19930;-66
2022/06/11 04:15:55;;;;;;;;;;;;;;;-145.66;100.00;59599.19;10467424;28;19986;-66
2022/06/11 04:20:58;;;;;;;;;;;;;;;-145.66;100.00;59599.19;10479324;28;20018;-67
2022/06/11 04:26:02;;;;;;;;;;;;;;;-145.66;100.00;59599.19;10441686;28;20086;-67
2022/06/11 04:31:05;;;;;;;;;;;;;;;-145.66;100.00;59599.19;10449558;28;20264;-67
2022/06/11 04:36:08;;;;;;;;;;;;;;;-145.66;100.00;59599.19;10484066;28;19970;-67
2022/06/11 04:41:10;;;;;;;;;;;;;;;-145.66;100.00;59599.19;10499793;28;19927;-67
2022/06/11 04:46:12;;;;;;;;;;;;;;;-145.66;100.00;59599.19;10501188;28;19920;-67
2022/06/11 04:51:15;;;;;;;;;;;;;;;-145.66;100.00;59599.19;10500812;28;20015;-67
2022/06/11 04:56:19;;;;;;;;;;;;;;;-145.66;100.00;59599.19;10483142;28;19920;-67
2022/06/11 05:01:22;;;;;;;;;;;;;;;-145.66;100.00;59599.19;10479362;28;19931;-67
2022/06/11 05:06:27;;;;;;;;;;;;;;;-145.66;100.00;59599.19;10482060;28;19924;-67
2022/06/11 05:11:29;;;;;;;;;;;;;;;-145.66;100.00;59599.19;10455902;28;19921;-67
2022/06/11 05:16:31;;;;;;;;;;;;;;;-145.66;100.00;59599.19;10458769;28;19924;-67
2022/06/11 05:21:34;;;;;;;;;;;;;;;-145.66;100.00;59599.19;10456167;28;19921;-67
2022/06/11 05:26:38;;;;;;;;;;;;;;;-145.66;100.00;59599.19;10499608;28;19927;-67
2022/06/11 05:31:40;;;;;;;;;;;;;;;-145.66;100.00;59599.19;10499540;28;19927;-66
2022/06/11 05:36:43;;;;;;;;;;;;;;;-145.66;100.00;59599.19;10499362;28;19931;-67
2022/06/11 05:41:45;;;;;;;;;;;;;;;-145.66;100.00;59599.19;10481541;28;19920;-66
2022/06/11 05:46:47;;;;;;;;;;;;;;;-145.66;100.00;59599.19;10481379;28;19920;-67
2022/06/11 05:51:51;;;;;;;;;;;;;;;-145.66;100.00;59599.19;10480712;28;19927;-67
2022/06/11 05:56:54;;;;;;;;;;;;;;;-145.66;100.00;59599.19;10480376;28;20268;-67
2022/06/11 06:01:56;;;;;;;;;;;;;;;-145.66;100.00;59599.19;10498227;28;20261;-67
2022/06/11 06:06:59;;;;;;;;;;;;;;;-145.66;100.00;59599.19;10480232;28;20260;-67
2022/06/11 06:12:01;;;;;;;;;;;;;;;-145.66;100.00;59599.19;10498702;28;19920;-66
2022/06/11 06:17:05;;;;;;;;;;;;;;;-145.66;100.00;59599.19;10480385;28;20004;-67
2022/06/11 06:22:27;;;;;;;;;;;;;;;-145.66;100.00;59599.19;10498639;28;19921;-66
2022/06/11 06:27:29;;;;;;;;;;;;;;;-145.66;100.00;59599.19;10480494;28;19921;-67
2022/06/11 06:32:31;;;;;;;;;;;;;;;-145.66;100.00;59599.19;10498267;28;19925;-67
2022/06/11 06:37:34;;;;;;;;;;;;;;;-145.66;100.00;59599.19;10498157;28;19921;-67
2022/06/11 06:42:36;;;;;;;;;;;;;;;-145.66;100.00;59599.19;10497410;28;19925;-67
2022/06/11 06:47:38;;;;;;;;;;;;;;;-145.66;100.00;59599.19;10497650;28;20414;-66
2022/06/11 06:52:40;;;;;;;;;;;;;;;-145.66;100.00;59599.19;10506029;28;20022;-67
2022/06/11 06:57:47;;;;;;;;;;;;;;;-145.66;100.00;59599.19;10505466;28;19924;-67
2022/06/11 07:02:49;;;;;;;;;;;;;;;-145.66;100.00;59599.19;10487090;28;19920;-67
2022/06/11 07:07:52;;;;;;;;;;;;;;;-145.66;100.00;59599.19;10505186;28;19928;-66
2022/06/11 07:12:54;;;;;;;;;;;;;;;-145.66;100.00;59599.19;10492909;22;20389;-68
2022/06/11 07:17:58;;;;;;;;;;;;;;;-145.66;100.00;59599.19;10486916;28;19928;-68
2022/06/11 07:23:02;;;;;;;;;;;;;;;-145.66;100.00;59599.19;10504682;28;19920;-68
2022/06/11 07:28:05;;;;;;;;;;;;;;;-145.66;100.00;59599.19;10486073;28;19999;-68
2022/06/11 07:33:09;;;;;;;;;;;;;;;-145.66;100.00;59599.19;10504318;28;19920;-68
2022/06/11 07:38:12;;;;;;;;;;;;;;;-145.66;100.00;59599.19;10503465;28;20437;-70
2022/06/11 07:43:14;;;;;;;;;;;;;;;-145.66;100.00;59599.19;10503692;28;19921;-68
2022/06/11 07:48:16;;;;;;;;;;;;;;;-145.66;100.00;59599.19;10503686;28;19927;-68
2022/06/11 07:53:20;;;;;;;;;;;;;;;-145.66;100.00;59599.19;10503435;28;19953;-68
2022/06/11 07:58:26;;;;;;;;;;;;;;;-145.66;100.00;59599.19;10502524;28;19920;-68
2022/06/11 08:03:28;;;;;;;;;;;;;;;-145.66;100.00;59599.19;10492292;28;20276;-68
2022/06/11 08:08:35;;;;;;;;;;;;;;;-145.66;100.00;59599.19;10444335;28;19970;-68
2022/06/11 08:13:37;;;;;;;;;;;;;;;-145.66;100.00;59599.19;10460543;28;19920;-69
2022/06/11 08:18:39;;;;;;;;;;;;;;;-145.66;100.00;59599.19;10427052;28;19927;-68
2022/06/11 08:23:42;;;;;;;;;;;;;;;-145.66;100.00;59599.19;10442629;28;20383;-69
2022/06/11 08:28:45;;;;;;;;;;;;;;;-145.66;100.00;59599.19;10459941;28;19924;-68
2022/06/11 08:33:47;;;;;;;;;;;;;;;-145.66;100.00;59599.19;10460011;28;20287;-69
2022/06/11 08:38:52;;;;;;;;;;;;;;;-145.66;100.00;59599.19;10459665;28;19948;-68
2022/06/11 08:43:58;;;;;;;;;;;;;;;-145.66;100.00;59599.19;10459368;28;20363;-68
2022/06/11 08:49:04;;;;;;;;;;;;;;;-145.66;100.00;59599.19;10441412;28;19921;-68
2022/06/11 08:54:10;;;;;;;;;;;;;;;-145.66;100.00;59599.19;10459657;28;19921;-68
2022/06/11 08:59:24;;;;;;;;;;;;;;;-145.66;100.00;59599.19;10441974;28;19963;-68
2022/06/11 09:04:43;;;;;;;;;;;;;;;-145.66;100.00;59599.19;10458654;28;19920;-68
2022/06/11 09:10:04;;;;;;;;;;;;;;;-145.66;100.00;59599.19;10458528;28;19944;-68
2022/06/11 09:15:27;;;;;;;;;;;;;;;-145.66;100.00;59599.19;10440151;28;20390;-68
2022/06/11 09:20:45;;;;;;;;;;;;;;;-145.66;100.00;59599.19;10424825;28;19970;-68
2022/06/11 09:26:07;;;;;;;;;;;;;;;-145.66;100.00;59599.19;10458573;28;19927;-68
2022/06/11 09:31:19;;;;;;;;;;;;;;;-145.66;100.00;59599.19;10440753;28;19921;-71
2022/06/11 09:36:33;;;;;;;;;;;;;;;-145.66;100.00;59599.19;10457521;28;19928;-68
2022/06/11 09:41:46;;;;;;;;;;;;;;;-145.66;100.00;59599.19;10439691;28;19921;-68
2022/06/11 09:46:52;;;;;;;;;;;;;;;-145.66;100.00;59599.19;10457747;28;19921;-68
2022/06/11 09:52:15;;;;;;;;;;;;;;;-145.66;100.00;59599.19;10439682;28;19921;-68
2022/06/11 09:57:36;;;;;;;;;;;;;;;-145.66;100.00;59599.19;10443567;28;19920;-69
2022/06/11 10:08:14;;;;;;;;;;;;;;;-145.66;100.00;59599.19;10412522;28;19931;-68
2022/06/11 10:13:28;;;;;;;;;;;;;;;-145.66;100.00;59599.19;10438836;28;19925;-68
2022/06/11 10:18:31;;;;;;;;;;;;;;;-145.66;100.00;59599.19;10457197;28;19928;-69
2022/06/11 10:23:43;;;;;;;;;;;;;;;-145.66;100.00;59599.19;10440753;28;20352;-68
2022/06/11 10:28:47;;;;;;;;;;;;;;;-145.66;100.00;59599.19;10464804;28;19921;-69
2022/06/11 10:33:56;;;;;;;;;;;;;;;-145.66;100.00;59599.19;10447173;28;19920;-68
2022/06/11 10:39:00;;;;;;;;;;;;;;;-145.66;100.00;59599.19;10465041;28;19920;-69
2022/06/11 10:44:02;;;;;;;;;;;;;;;-145.66;100.00;59599.19;10447226;28;19932;-69
2022/06/11 10:49:09;;;;;;;;;;;;;;;-145.66;100.00;59599.19;10463966;28;19943;-69
2022/06/11 10:54:22;;;;;;;;;;;;;;;-145.66;100.00;59599.19;10464479;28;19921;-69
2022/06/11 10:59:27;;;;;;;;;;;;;;;-145.66;100.00;59599.19;10446144;28;20382;-69
2022/06/11 11:04:36;;;;;;;;;;;;;;;-145.66;100.00;59599.19;10463544;28;20272;-69
2022/06/11 11:09:38;;;;;;;;;;;;;;;-145.66;100.00;59599.19;10446303;28;19920;-69
2022/06/11 11:14:42;;;;;;;;;;;;;;;-145.66;100.00;59599.19;10462965;28;19943;-69
2022/06/11 11:20:29;;;;;;;;;;;;;;;-145.66;100.00;59599.19;10462969;28;19925;-70
2022/06/11 11:25:14;;;;;;;;;;;;;;;-145.66;100.00;59599.19;10447916;28;19927;-69
2022/06/11 11:30:36;;;;;;;;;;;;;;;-145.66;100.00;59599.19;10445458;28;19920;-69
2022/06/11 11:35:39;;;;;;;;;;;;;;;-145.66;100.00;59599.19;10445147;28;19927;-69
2022/06/11 11:40:53;;;;;;;;;;;;;;;-145.66;100.00;59599.19;10445148;28;19928;-68
2022/06/11 11:45:57;;;;;;;;;;;;;;;-145.66;100.00;59599.19;10461911;28;19920;-68
2022/06/11 11:51:06;;;;;;;;;;;;;;;-145.66;100.00;59599.19;10444115;28;19928;-69
2022/06/11 11:56:27;;;;;;;;;;;;;;;-145.66;100.00;59599.19;10443846;28;19970;-68
2022/06/11 12:01:29;;;;;;;;;;;;;;;-145.66;100.00;59599.19;10461945;28;19921;-69
2022/06/11 12:06:34;;;;;;;;;;;;;;;-145.66;100.00;59599.19;10461677;28;19921;-69
2022/06/11 12:11:37;;;;;;;;;;;;;;;-145.66;100.00;59599.19;10443693;28;19927;-69
2022/06/11 12:16:40;;;;;;;;;;;;;;;-145.66;100.00;59599.19;10461493;28;19927;-69
2022/06/11 12:22:07;;;;;;;;;;;;;;;-145.66;100.00;59599.19;10443374;28;20303;-69
2022/06/11 12:27:16;;;;;;;;;;;;;;;-145.66;100.00;59599.19;10458715;28;19928;-69
2022/06/11 12:32:19;;;;;;;;;;;;;;;-145.66;100.00;59599.19;10428812;28;20288;-69
2022/06/11 12:37:24;;;;;;;;;;;;;;;-145.66;100.00;59599.19;10428709;28;19928;-69
2022/06/11 12:42:33;;;;;;;;;;;;;;;-145.66;100.00;59599.19;10458797;28;19921;-69
2022/06/11 12:47:45;;;;;;;;;;;;;;;-145.66;100.00;59599.19;10437152;28;19928;-69
2022/06/11 12:53:13;;;;;;;;;;;;;;;-145.66;100.00;59599.19;10409301;28;19921;-69
2022/06/11 12:58:19;;;;;;;;;;;;;;;-145.66;100.00;59599.19;10417861;28;19921;-70
2022/06/11 13:03:43;;;;;;;;;;;;;;;-145.66;100.00;59599.19;10414916;28;19928;-69
2022/06/11 13:08:52;;;;;;;;;;;;;;;-145.66;100.00;59599.19;10458388;28;20356;-70
2022/06/11 13:13:57;;;;;;;;;;;;;;;-145.66;100.00;59599.19;10458609;28;19921;-70
2022/06/11 13:19:34;;;;;;;;;;;;;;;-145.66;100.00;59599.19;10424680;28;19921;-70
2022/06/11 13:24:46;;;;;;;;;;;;;;;-145.66;100.00;59599.19;10360107;28;20371;-70
2022/06/11 13:29:51;;;;;;;;;;;;;;;-145.66;100.00;59599.19;10440480;28;19921;-70
2022/06/11 13:35:03;;;;;;;;;;;;;;;-145.66;100.00;59599.19;10457717;28;20311;-70
2022/06/11 13:40:20;;;;;;;;;;;;;;;-145.66;100.00;59599.19;10457852;28;19928;-70
2022/06/11 13:45:26;;;;;;;;;;;;;;;-145.66;100.00;59599.19;10439993;28;19925;-70
2022/06/11 13:50:33;;;;;;;;;;;;;;;-145.66;100.00;59599.19;10457439;28;20442;-70
2022/06/11 13:55:36;;;;;;;;;;;;;;;-145.66;100.00;59599.19;10440032;28;19935;-70
2022/06/11 14:00:54;;;;;;;;;;;;;;;-145.66;100.00;59599.19;10456505;28;19957;-70
2022/06/11 14:05:56;;;;;;;;;;;;;;;-145.66;100.00;59599.19;10439427;28;19928;-71
2022/06/11 14:11:00;;;;;;;;;;;;;;;-145.66;100.00;59599.19;10439117;28;19921;-70
2022/06/11 14:16:38;;;;;;;;;;;;;;;-145.66;100.00;59599.19;10448738;28;19921;-71
2022/06/11 14:21:40;;;;;;;;;;;;;;;-145.66;100.00;59599.19;10334774;28;19921;-70
2022/06/11 14:26:45;;;;;;;;;;;;;;;-145.66;100.00;59599.19;10414993;28;19925;-71
2022/06/11 14:31:55;;;;;;;;;;;;;;;-145.66;100.00;59599.19;10415661;28;19921;-70
2022/06/11 14:37:20;;;;;;;;;;;;;;;-145.66;100.00;59599.19;10397469;28;20412;-71
2022/06/11 14:42:23;;;;;;;;;;;;;;;-145.66;100.00;59599.19;10439513;28;19925;-70
2022/06/11 14:47:45;;;;;;;;;;;;;;;-145.66;100.00;59599.19;10438629;28;19927;-70
2022/06/11 14:52:48;;;;;;;;;;;;;;;-145.66;100.00;59599.19;10455717;28;19920;-70
2022/06/11 14:57:59;;;;;;;;;;;;;;;-145.66;100.00;59599.19;10455750;28;20278;-71
2022/06/11 15:03:04;;;;;;;;;;;;;;;-145.66;100.00;59599.19;10430129;28;19927;-71
2022/06/11 15:08:15;;;;;;;;;;;;;;;-145.66;100.00;59599.19;10433823;28;19925;-71
2022/06/11 15:13:18;;;;;;;;;;;;;;;-145.66;100.00;59599.19;10437308;28;19920;-71
2022/06/11 15:18:39;;;;;;;;;;;;;;;-145.66;100.00;59599.19;10447052;28;19921;-70
2022/06/11 15:23:43;;;;;;;;;;;;;;;-145.66;100.00;59599.19;10472588;28;19924;-71
2022/06/11 15:29:02;;;;;;;;;;;;;;;-145.66;100.00;59599.19;10445444;28;19921;-71
2022/06/11 15:34:04;;;;;;;;;;;;;;;-145.66;100.00;59599.19;10464639;28;19927;-71
2022/06/11 15:39:08;;;;;;;;;;;;;;;-145.66;100.00;59599.19;10445282;28;19925;-70
2022/06/11 15:44:18;;;;;;;;;;;;;;;-145.66;100.00;59599.19;10451143;28;19920;-71
2022/06/11 15:49:27;;;;;;;;;;;;;;;-145.66;100.00;59599.19;10449470;28;19921;-71
2022/06/11 15:59:50;;;;;;;;;;;;;;;-145.66;100.00;59599.19;10462026;28;19936;-72
2022/06/11 16:04:52;;;;;;;;;;;;;;;-145.66;100.00;59599.19;10459452;28;19924;-71
2022/06/11 16:09:54;;;;;;;;;;;;;;;-145.66;100.00;59599.19;10459636;28;20284;-71
2022/06/11 16:14:57;;;;;;;;;;;;;;;-145.66;100.00;59599.19;10442933;28;19921;-71
2022/06/11 16:20:01;;;;;;;;;;;;;;;-145.66;100.00;59599.19;10463318;28;20368;-71
2022/06/11 16:25:04;;;;;;;;;;;;;;;-145.66;100.00;59599.19;10484383;28;19927;-71
2022/06/11 16:30:27;;;;;;;;;;;;;;;-145.66;100.00;59599.19;10484358;28;20372;-70
2022/06/11 16:35:31;;;;;;;;;;;;;;;-145.66;100.00;59599.19;10483688;28;20367;-71
2022/06/11 16:40:38;;;;;;;;;;;;;;;-145.66;100.00;59599.19;10446163;28;20287;-70
2022/06/11 16:45:45;;;;;;;;;;;;;;;-145.66;100.00;59599.19;10460717;28;20360;-70
2022/06/11 16:56:17;;;;;;;;;;;;;;;-145.66;100.00;59599.19;10475673;28;19920;-71
2022/06/11 17:01:20;;;;;;;;;;;;;;;-145.66;100.00;59599.19;10500876;28;19920;-70
2022/06/11 17:06:28;;;;;;;;;;;;;;;-145.66;100.00;59599.19;10498480;28;19924;-71
2022/06/11 17:11:30;;;;;;;;;;;;;;;-145.66;100.00;59599.19;10499796;28;20280;-70
2022/06/11 17:16:33;;;;;;;;;;;;;;;-145.66;100.00;59599.19;10481883;28;20364;-70
2022/06/11 17:21:37;;;;;;;;;;;;;;;-145.66;100.00;59599.19;10481453;28;19927;-71
2022/06/11 17:26:41;;;;;;;;;;;;;;;-145.66;100.00;59599.19;10481228;28;19920;-70
2022/06/11 17:31:44;;;;;;;;;;;;;;;-145.66;100.00;59599.19;10498895;28;20291;-71
2022/06/11 17:36:47;;;;;;;;;;;;;;;-145.66;100.00;59599.19;10481311;28;19920;-70
2022/06/11 17:41:51;;;;;;;;;;;;;;;-145.66;100.00;59599.19;10481737;28;19927;-70
2022/06/11 17:46:58;;;;;;;;;;;;;;;-145.66;100.00;59599.19;10480886;28;19924;-70
2022/06/11 17:52:02;;;;;;;;;;;;;;;-145.66;100.00;59599.19;10464139;28;19921;-70
2022/06/11 17:57:05;;;;;;;;;;;;;;;-145.66;100.00;59599.19;10439283;28;19927;-70
2022/06/11 18:02:21;;;;;;;;;;;;;;;-145.66;100.00;59599.19;10457718;28;19920;-70
2022/06/11 18:07:24;;;;;;;;;;;;;;;-145.66;100.00;59599.19;10457348;28;19947;-70
2022/06/11 18:12:26;;;;;;;;;;;;;;;-145.66;100.00;59599.19;10471207;28;20294;-70
2022/06/11 18:17:48;;;;;;;;;;;;;;;-145.66;100.00;59599.19;10456552;28;19921;-70
2022/06/11 18:28:11;;;;;;;;;;;;;;;-145.66;100.00;59599.19;10442044;28;19921;-70
2022/06/11 18:33:14;;;;;;;;;;;;;;;-145.66;100.00;59599.19;10456920;28;19928;-70
2022/06/11 18:38:16;;;;;;;;;;;;;;;-145.66;100.00;59599.19;10456820;28;19921;-70
2022/06/11 18:43:23;;;;;;;;;;;;;;;-145.66;100.00;59599.19;10457881;28;19927;-70
2022/06/11 18:48:25;;;;;;;;;;;;;;;-145.66;100.00;59599.19;10447295;28;19921;-70
2022/06/11 18:53:27;;;;;;;;;;;;;;;-145.66;100.00;59599.19;10497269;28;19926;-70
2022/06/11 18:58:30;;;;;;;;;;;;;;;-145.66;100.00;59599.19;10487530;28;20294;-70
2022/06/11 19:03:32;;;;;;;;;;;;;;;-145.66;100.00;59599.19;10501728;28;20397;-70
2022/06/11 19:08:34;;;;;;;;;;;;;;;-145.66;100.00;59599.19;10504799;28;19925;-70
2022/06/11 19:13:36;;;;;;;;;;;;;;;-145.66;100.00;59599.19;10497543;28;19925;-70
2022/06/11 19:18:39;;;;;;;;;;;;;;;-145.66;100.00;59599.19;10472758;28;20364;-70
2022/06/11 19:23:41;;;;;;;;;;;;;;;-145.66;100.00;59599.19;10498211;28;20401;-70
2022/06/11 19:28:43;;;;;;;;;;;;;;;-145.66;100.00;59599.19;10497252;22;19924;-68
2022/06/11 19:33:46;;;;;;;;;;;;;;;-145.66;100.00;59599.19;10485736;28;19927;-69
2022/06/11 19:38:49;;;;;;;;;;;;;;;-145.66;100.00;59599.19;10478888;28;19927;-68
2022/06/11 19:43:54;;;;;;;;;;;;;;;-145.66;100.00;59599.19;10446286;28;19927;-68
2022/06/11 19:48:57;;;;;;;;;;;;;;;-145.66;100.00;59599.19;10461451;28;20261;-68
2022/06/11 19:53:59;;;;;;;;;;;;;;;-145.66;100.00;59599.19;10483602;28;20400;-68
2022/06/11 19:59:03;;;;;;;;;;;;;;;-145.66;100.00;59599.19;10462024;28;19921;-68
2022/06/11 20:04:07;;;;;;;;;;;;;;;-145.66;100.00;59599.19;10483707;28;20302;-68
2022/06/11 20:09:11;;;;;;;;;;;;;;;-145.66;100.00;59599.19;10461608;28;20019;-68
2022/06/11 20:14:15;;;;;;;;;;;;;;;-145.66;100.00;59599.19;10461386;28;19964;-68
2022/06/11 20:19:18;;;;;;;;;;;;;;;-145.66;100.00;59599.19;10461239;28;20287;-68
2022/06/11 20:24:21;;;;;;;;;;;;;;;-145.66;100.00;59599.19;10467334;28;19920;-68
2022/06/11 20:29:24;;;;;;;;;;;;;;;-145.66;100.00;59599.19;10465945;28;19928;-68
2022/06/11 20:34:26;;;;;;;;;;;;;;;-145.66;100.00;59599.19;10460736;28;19924;-68
2022/06/11 20:39:28;;;;;;;;;;;;;;;-145.66;100.00;59599.19;10443034;28;19921;-68
2022/06/11 20:44:31;;;;;;;;;;;;;;;-145.66;100.00;59599.19;10470933;28;19921;-68
2022/06/11 20:49:41;;;;;;;;;;;;;;;-145.66;100.00;59599.19;10444044;28;20298;-69
2022/06/11 20:54:44;;;;;;;;;;;;;;;-145.66;100.00;59599.19;10461134;28;20367;-69
2022/06/11 20:59:46;;;;;;;;;;;;;;;-145.66;100.00;59599.19;10433038;28;19920;-68
2022/06/11 21:04:49;;;;;;;;;;;;;;;-145.66;100.00;59599.19;10461181;28;19928;-69
2022/06/11 21:09:51;;;;;;;;;;;;;;;-145.66;100.00;59599.19;10498984;28;19920;-69
2022/06/11 21:14:53;;;;;;;;;;;;;;;-145.66;100.00;59599.19;10500508;28;19921;-68
2022/06/11 21:19:56;;;;;;;;;;;;;;;-145.66;100.00;59599.19;10476952;28;19921;-68
2022/06/11 21:24:59;;;;;;;;;;;;;;;-145.66;100.00;59599.19;10487648;28;19921;-68
2022/06/11 21:30:02;;;;;;;;;;;;;;;-145.66;100.00;59599.19;10499190;28;19921;-68
2022/06/11 21:35:05;;;;;;;;;;;;;;;-145.66;100.00;59599.19;10498448;28;19939;-68
2022/06/11 21:40:07;;;;;;;;;;;;;;;-145.66;100.00;59599.19;10471981;28;19920;-68
2022/06/11 21:45:13;;;;;;;;;;;;;;;-145.66;100.00;59599.19;10455450;28;19929;-68
2022/06/11 21:50:16;;;;;;;;;;;;;;;-145.66;100.00;59599.19;10453834;28;19928;-68
2022/06/11 21:55:19;;;;;;;;;;;;;;;-145.66;100.00;59599.19;10468583;28;19956;-68
2022/06/11 22:00:31;;;;;;;;;;;;;;;-145.66;100.00;59599.19;10469312;28;19928;-68
2022/06/11 22:05:33;;;;;;;;;;;;;;;-145.66;100.00;59599.19;10495748;28;19921;-69
2022/06/11 22:10:36;;;;;;;;;;;;;;;-145.66;100.00;59599.19;10498751;28;19920;-69
2022/06/11 22:15:38;;;;;;;;;;;;;;;-145.66;100.00;59599.19;10477355;28;20287;-69
2022/06/11 22:20:40;;;;;;;;;;;;;;;-145.66;100.00;59599.19;10455662;28;19920;-69
2022/06/11 22:25:42;;;;;;;;;;;;;;;-145.66;100.00;59599.19;10495724;28;19920;-69
2022/06/11 22:30:45;;;;;;;;;;;;;;;-145.66;100.00;59599.19;10497623;28;19927;-69
2022/06/11 22:35:47;;;;;;;;;;;;;;;-145.66;100.00;59599.19;10480189;28;19928;-69
2022/06/11 22:40:52;;;;;;;;;;;;;;;-145.66;100.00;59599.19;10479384;28;19932;-69
2022/06/11 22:45:54;;;;;;;;;;;;;;;-145.66;100.00;59599.19;10459012;28;19921;-69
2022/06/11 22:50:56;;;;;;;;;;;;;;;-145.66;100.00;59599.19;10454765;28;20433;-69
2022/06/11 22:55:58;;;;;;;;;;;;;;;-145.66;100.00;59599.19;10471086;28;19943;-69
2022/06/11 23:01:01;;;;;;;;;;;;;;;-145.66;100.00;59599.19;10483229;28;19931;-69
2022/06/11 23:06:03;;;;;;;;;;;;;;;-145.66;100.00;59599.19;10456687;28;20371;-69
2022/06/11 23:11:06;;;;;;;;;;;;;;;-145.66;100.00;59599.19;10469927;28;19927;-69
2022/06/11 23:16:09;;;;;;;;;;;;;;;-145.66;100.00;59599.19;10495854;28;20363;-69
2022/06/11 23:21:11;;;;;;;;;;;;;;;-145.66;100.00;59599.19;10495734;28;19920;-69
2022/06/11 23:26:14;;;;;;;;;;;;;;;-145.66;100.00;59599.19;10458242;28;19921;-69
2022/06/11 23:31:16;;;;;;;;;;;;;;;-145.66;100.00;59599.19;10470449;28;19920;-69
2022/06/11 23:36:19;;;;;;;;;;;;;;;-145.66;100.00;59599.19;10502312;28;20428;-69
2022/06/11 23:41:22;;;;;;;;;;;;;;;-145.66;100.00;59599.19;10470300;28;19921;-69
2022/06/11 23:46:24;;;;;;;;;;;;;;;-145.66;100.00;59599.19;10460280;28;20291;-69
2022/06/11 23:51:28;;;;;;;;;;;;;;;-145.66;100.00;59599.19;10461368;28;19925;-69
2022/06/11 23:56:32;;;;;;;;;;;;;;;-145.66;100.00;59599.19;10452710;28;19920;-69
